createdAt,value
2019-05-03T00:10:19.401Z,13.05
2019-05-03T00:25:26.069Z,12.53
2019-05-03T00:40:32.979Z,12.40
2019-05-03T00:55:41.882Z,13.85
2019-05-03T01:10:48.503Z,12.78
2019-05-03T01:25:56.123Z,13.43
2019-05-03T01:41:03.052Z,14.50
2019-05-03T01:56:11.722Z,12.75
2019-05-03T02:11:18.190Z,13.62
2019-05-03T02:26:25.405Z,12.65
2019-05-03T02:41:34.119Z,13.22
2019-05-03T02:56:46.023Z,12.47
2019-05-03T03:11:55.862Z,11.73
2019-05-03T03:27:05.801Z,11.08
2019-05-03T03:42:16.322Z,10.85
2019-05-03T03:57:25.662Z,8.88
2019-05-03T04:12:35.053Z,11.63
2019-05-03T04:27:41.899Z,11.35
2019-05-03T04:42:48.810Z,11.00
2019-05-03T04:57:56.238Z,11.65
2019-05-03T05:13:05.386Z,13.28
2019-05-03T05:28:30.184Z,15.70
2019-05-03T05:43:37.407Z,23.00
2019-05-03T05:58:46.002Z,15.30
2019-05-03T06:14:05.053Z,15.90
2019-05-03T06:29:15.024Z,17.40
2019-05-03T06:44:37.324Z,16.87
2019-05-03T06:59:56.508Z,15.75
2019-05-03T07:15:05.140Z,16.93
2019-05-03T07:30:12.753Z,16.40
2019-05-03T07:45:20.691Z,16.77
2019-05-03T08:00:27.588Z,16.57
2019-05-03T08:15:36.139Z,11.45
2019-05-03T08:30:50.593Z,11.12
2019-05-03T08:45:57.047Z,10.28
2019-05-03T09:01:07.409Z,12.18
2019-05-03T09:16:15.329Z,14.00
2019-05-03T09:31:21.858Z,11.63
2019-05-03T09:46:29.671Z,10.05
2019-05-03T10:01:36.486Z,10.00
2019-05-03T10:16:51.850Z,10.55
2019-05-03T10:32:00.551Z,11.28
2019-05-03T10:47:08.452Z,12.47
2019-05-03T11:02:30.929Z,13.72
2019-05-03T11:17:38.398Z,11.70
2019-05-03T11:32:48.000Z,11.08
2019-05-03T11:47:55.849Z,11.57
2019-05-03T12:03:07.395Z,9.98
2019-05-03T12:18:16.241Z,6.08
2019-05-03T12:33:26.040Z,4.62
2019-05-03T12:48:32.603Z,5.28
2019-05-03T13:03:42.105Z,5.72
2019-05-03T13:18:49.420Z,5.97
2019-05-03T13:33:56.412Z,8.55
2019-05-03T13:49:05.381Z,9.55
2019-05-03T14:04:14.810Z,8.18
2019-05-03T14:19:25.941Z,6.22
2019-05-03T14:34:32.836Z,6.22
2019-05-03T14:49:39.788Z,6.05
2019-05-03T15:04:46.768Z,6.00
2019-05-03T15:19:54.742Z,5.87
2019-05-03T15:35:01.822Z,4.60
2019-05-03T15:50:09.244Z,4.47
2019-05-03T16:20:22.540Z,4.45
2019-05-03T16:35:30.483Z,5.25
2019-05-03T16:50:39.167Z,5.83
2019-05-03T17:05:56.478Z,8.03
2019-05-03T17:21:03.214Z,5.25
2019-05-03T17:36:10.057Z,7.00
2019-05-03T17:51:35.115Z,7.83
2019-05-03T18:06:45.261Z,7.53
2019-05-03T18:21:52.783Z,10.50
2019-05-03T18:36:59.741Z,7.60
2019-05-03T18:52:07.011Z,7.15
2019-05-03T19:07:18.358Z,6.58
2019-05-03T19:22:25.391Z,9.75
2019-05-03T19:37:32.328Z,7.80
2019-05-03T19:52:57.144Z,8.93
2019-05-03T20:08:12.907Z,9.58
2019-05-03T20:23:39.307Z,10.00
2019-05-03T20:38:48.269Z,10.98
2019-05-03T20:53:55.350Z,10.32
2019-05-03T21:09:04.623Z,12.25
2019-05-03T21:24:14.832Z,11.63
2019-05-03T21:39:21.917Z,11.60
2019-05-03T21:54:31.487Z,10.53
2019-05-03T22:09:41.307Z,10.23
2019-05-03T22:24:50.842Z,10.08
2019-05-03T22:39:58.944Z,12.58
2019-05-03T22:55:08.334Z,13.45
2019-05-03T23:10:17.494Z,11.63
2019-05-03T23:25:25.078Z,12.00
2019-05-03T23:40:32.101Z,11.88
2019-05-03T23:55:40.539Z,8.55
